sensor_id;sensor_type;location;lat;lon;timestamp;P1;durP1;ratioP1;P2;durP2;ratioP2
19193;SDS011;9729;52.296;13.260;2023-04-23T00:00:01;19.33;;;12.20;;
19193;SDS011;9729;52.296;13.260;2023-04-23T00:02:28;20.67;;;11.83;;
19193;SDS011;9729;52.296;13.260;2023-04-23T00:04:54;19.87;;;12.50;;
19193;SDS011;9729;52.296;13.260;2023-04-23T00:07:24;22.57;;;12.60;;
19193;SDS011;9729;52.296;13.260;2023-04-23T00:09:51;18.50;;;11.90;;
19193;SDS011;9729;52.296;13.260;2023-04-23T00:12:18;16.13;;;11.50;;
19193;SDS011;9729;52.296;13.260;2023-04-23T00:14:45;16.83;;;10.97;;
19193;SDS011;9729;52.296;13.260;2023-04-23T00:17:11;19.37;;;11.63;;
19193;SDS011;9729;52.296;13.260;2023-04-23T00:19:37;17.20;;;11.73;;
19193;SDS011;9729;52.296;13.260;2023-04-23T00:22:04;17.90;;;12.00;;
19193;SDS011;9729;52.296;13.260;2023-04-23T00:24:31;13.87;;;11.83;;
19193;SDS011;9729;52.296;13.260;2023-04-23T00:27:00;15.97;;;11.20;;
19193;SDS011;9729;52.296;13.260;2023-04-23T00:29:26;22.10;;;12.07;;
19193;SDS011;9729;52.296;13.260;2023-04-23T00:31:52;18.77;;;12.17;;
19193;SDS011;9729;52.296;13.260;2023-04-23T00:34:19;22.50;;;11.57;;
19193;SDS011;9729;52.296;13.260;2023-04-23T00:36:45;19.13;;;10.93;;
19193;SDS011;9729;52.296;13.260;2023-04-23T00:39:11;17.53;;;11.10;;
19193;SDS011;9729;52.296;13.260;2023-04-23T00:41:39;16.23;;;10.20;;
19193;SDS011;9729;52.296;13.260;2023-04-23T00:44:06;17.83;;;9.60;;
19193;SDS011;9729;52.296;13.260;2023-04-23T00:46:33;16.90;;;10.40;;
19193;SDS011;9729;52.296;13.260;2023-04-23T00:49:00;15.90;;;9.90;;
19193;SDS011;9729;52.296;13.260;2023-04-23T00:51:26;18.33;;;8.93;;
19193;SDS011;9729;52.296;13.260;2023-04-23T00:53:53;14.23;;;9.10;;
19193;SDS011;9729;52.296;13.260;2023-04-23T00:56:20;18.00;;;8.90;;
19193;SDS011;9729;52.296;13.260;2023-04-23T00:58:48;17.73;;;8.27;;
19193;SDS011;9729;52.296;13.260;2023-04-23T01:01:14;18.63;;;8.63;;
19193;SDS011;9729;52.296;13.260;2023-04-23T01:03:42;12.33;;;7.77;;
19193;SDS011;9729;52.296;13.260;2023-04-23T01:06:08;13.20;;;7.77;;
19193;SDS011;9729;52.296;13.260;2023-04-23T01:08:34;11.53;;;8.10;;
19193;SDS011;9729;52.296;13.260;2023-04-23T01:11:01;10.37;;;7.30;;
19193;SDS011;9729;52.296;13.260;2023-04-23T01:13:28;14.93;;;8.80;;
19193;SDS011;9729;52.296;13.260;2023-04-23T01:15:56;14.73;;;8.90;;
19193;SDS011;9729;52.296;13.260;2023-04-23T01:18:23;14.37;;;8.00;;
19193;SDS011;9729;52.296;13.260;2023-04-23T01:20:49;16.33;;;7.97;;
19193;SDS011;9729;52.296;13.260;2023-04-23T01:23:17;17.23;;;9.37;;
19193;SDS011;9729;52.296;13.260;2023-04-23T01:25:44;18.33;;;8.87;;
19193;SDS011;9729;52.296;13.260;2023-04-23T01:28:11;17.77;;;8.90;;
19193;SDS011;9729;52.296;13.260;2023-04-23T01:30:38;15.20;;;9.10;;
19193;SDS011;9729;52.296;13.260;2023-04-23T01:33:06;17.77;;;9.93;;
19193;SDS011;9729;52.296;13.260;2023-04-23T01:35:34;16.87;;;9.40;;
19193;SDS011;9729;52.296;13.260;2023-04-23T01:38:01;12.83;;;9.43;;
19193;SDS011;9729;52.296;13.260;2023-04-23T01:40:29;14.60;;;9.40;;
19193;SDS011;9729;52.296;13.260;2023-04-23T01:42:56;23.20;;;11.27;;
19193;SDS011;9729;52.296;13.260;2023-04-23T01:45:22;17.20;;;9.27;;
19193;SDS011;9729;52.296;13.260;2023-04-23T01:47:49;16.37;;;10.20;;
19193;SDS011;9729;52.296;13.260;2023-04-23T01:50:16;14.93;;;10.77;;
19193;SDS011;9729;52.296;13.260;2023-04-23T01:52:42;18.77;;;10.63;;
19193;SDS011;9729;52.296;13.260;2023-04-23T01:55:10;20.27;;;11.70;;
19193;SDS011;9729;52.296;13.260;2023-04-23T01:57:40;17.13;;;10.93;;
19193;SDS011;9729;52.296;13.260;2023-04-23T02:00:07;18.67;;;10.97;;
19193;SDS011;9729;52.296;13.260;2023-04-23T02:02:36;15.80;;;11.20;;
19193;SDS011;9729;52.296;13.260;2023-04-23T02:05:03;18.93;;;11.50;;
19193;SDS011;9729;52.296;13.260;2023-04-23T02:07:31;18.33;;;11.73;;
19193;SDS011;9729;52.296;13.260;2023-04-23T02:09:57;16.47;;;12.03;;
19193;SDS011;9729;52.296;13.260;2023-04-23T02:12:24;14.57;;;11.03;;
19193;SDS011;9729;52.296;13.260;2023-04-23T02:14:52;22.87;;;11.80;;
19193;SDS011;9729;52.296;13.260;2023-04-23T02:17:19;14.83;;;11.17;;
19193;SDS011;9729;52.296;13.260;2023-04-23T02:19:46;14.40;;;10.80;;
19193;SDS011;9729;52.296;13.260;2023-04-23T02:22:13;16.47;;;11.13;;
19193;SDS011;9729;52.296;13.260;2023-04-23T02:24:39;15.97;;;10.87;;
19193;SDS011;9729;52.296;13.260;2023-04-23T02:27:06;17.30;;;10.20;;
19193;SDS011;9729;52.296;13.260;2023-04-23T02:29:33;16.30;;;10.17;;
19193;SDS011;9729;52.296;13.260;2023-04-23T02:32:02;19.23;;;10.27;;
19193;SDS011;9729;52.296;13.260;2023-04-23T02:34:28;14.33;;;10.50;;
19193;SDS011;9729;52.296;13.260;2023-04-23T02:36:54;15.10;;;10.70;;
19193;SDS011;9729;52.296;13.260;2023-04-23T02:39:21;18.90;;;11.53;;
19193;SDS011;9729;52.296;13.260;2023-04-23T02:41:47;16.87;;;11.27;;
19193;SDS011;9729;52.296;13.260;2023-04-23T02:44:14;17.80;;;11.97;;
19193;SDS011;9729;52.296;13.260;2023-04-23T02:46:40;15.50;;;11.03;;
19193;SDS011;9729;52.296;13.260;2023-04-23T02:49:07;17.07;;;11.53;;
19193;SDS011;9729;52.296;13.260;2023-04-23T02:51:34;15.37;;;11.50;;
19193;SDS011;9729;52.296;13.260;2023-04-23T02:54:00;15.40;;;11.70;;
19193;SDS011;9729;52.296;13.260;2023-04-23T02:56:27;15.03;;;11.30;;
19193;SDS011;9729;52.296;13.260;2023-04-23T02:58:54;22.70;;;12.00;;
19193;SDS011;9729;52.296;13.260;2023-04-23T03:01:20;19.63;;;11.70;;
19193;SDS011;9729;52.296;13.260;2023-04-23T03:03:47;21.23;;;11.97;;
19193;SDS011;9729;52.296;13.260;2023-04-23T03:06:14;13.90;;;11.07;;
19193;SDS011;9729;52.296;13.260;2023-04-23T03:08:41;13.63;;;11.13;;
19193;SDS011;9729;52.296;13.260;2023-04-23T03:11:08;16.37;;;10.93;;
19193;SDS011;9729;52.296;13.260;2023-04-23T03:13:34;19.87;;;13.30;;
19193;SDS011;9729;52.296;13.260;2023-04-23T03:16:00;21.17;;;11.90;;
19193;SDS011;9729;52.296;13.260;2023-04-23T03:18:27;15.03;;;10.17;;
19193;SDS011;9729;52.296;13.260;2023-04-23T03:20:53;17.90;;;11.87;;
19193;SDS011;9729;52.296;13.260;2023-04-23T03:23:21;20.40;;;15.00;;
19193;SDS011;9729;52.296;13.260;2023-04-23T03:25:47;24.37;;;15.93;;
19193;SDS011;9729;52.296;13.260;2023-04-23T03:28:14;30.63;;;16.63;;
19193;SDS011;9729;52.296;13.260;2023-04-23T03:30:40;20.67;;;15.00;;
19193;SDS011;9729;52.296;13.260;2023-04-23T03:33:07;22.43;;;13.60;;
19193;SDS011;9729;52.296;13.260;2023-04-23T03:35:33;20.27;;;12.87;;
19193;SDS011;9729;52.296;13.260;2023-04-23T03:38:00;17.40;;;12.60;;
19193;SDS011;9729;52.296;13.260;2023-04-23T03:40:27;19.57;;;13.60;;
19193;SDS011;9729;52.296;13.260;2023-04-23T03:42:55;16.40;;;13.07;;
19193;SDS011;9729;52.296;13.260;2023-04-23T03:45:21;21.67;;;12.20;;
19193;SDS011;9729;52.296;13.260;2023-04-23T03:47:48;34.53;;;13.57;;
19193;SDS011;9729;52.296;13.260;2023-04-23T03:50:14;20.60;;;13.50;;
19193;SDS011;9729;52.296;13.260;2023-04-23T03:52:41;20.77;;;13.20;;
19193;SDS011;9729;52.296;13.260;2023-04-23T03:55:08;16.33;;;11.60;;
19193;SDS011;9729;52.296;13.260;2023-04-23T03:57:36;14.43;;;12.27;;
19193;SDS011;9729;52.296;13.260;2023-04-23T04:00:03;14.93;;;11.97;;
19193;SDS011;9729;52.296;13.260;2023-04-23T04:02:32;17.30;;;11.93;;
19193;SDS011;9729;52.296;13.260;2023-04-23T04:04:58;17.97;;;12.30;;
19193;SDS011;9729;52.296;13.260;2023-04-23T04:07:25;19.57;;;12.27;;
19193;SDS011;9729;52.296;13.260;2023-04-23T04:09:52;16.37;;;11.90;;
19193;SDS011;9729;52.296;13.260;2023-04-23T04:12:18;17.00;;;11.87;;
19193;SDS011;9729;52.296;13.260;2023-04-23T04:14:46;13.53;;;11.00;;
19193;SDS011;9729;52.296;13.260;2023-04-23T04:17:12;15.60;;;12.00;;
19193;SDS011;9729;52.296;13.260;2023-04-23T04:19:40;20.03;;;12.87;;
19193;SDS011;9729;52.296;13.260;2023-04-23T04:22:06;20.80;;;12.90;;
19193;SDS011;9729;52.296;13.260;2023-04-23T04:24:33;20.03;;;12.03;;
19193;SDS011;9729;52.296;13.260;2023-04-23T04:26:59;14.90;;;11.67;;
19193;SDS011;9729;52.296;13.260;2023-04-23T04:29:25;20.40;;;12.63;;
19193;SDS011;9729;52.296;13.260;2023-04-23T04:31:53;16.77;;;11.90;;
19193;SDS011;9729;52.296;13.260;2023-04-23T04:34:20;18.97;;;12.53;;
19193;SDS011;9729;52.296;13.260;2023-04-23T04:36:47;17.00;;;12.33;;
19193;SDS011;9729;52.296;13.260;2023-04-23T04:39:15;17.57;;;12.47;;
19193;SDS011;9729;52.296;13.260;2023-04-23T04:41:43;19.13;;;12.03;;
19193;SDS011;9729;52.296;13.260;2023-04-23T04:44:09;16.40;;;13.20;;
19193;SDS011;9729;52.296;13.260;2023-04-23T04:46:35;17.90;;;12.90;;
19193;SDS011;9729;52.296;13.260;2023-04-23T04:49:06;23.00;;;13.37;;
19193;SDS011;9729;52.296;13.260;2023-04-23T04:51:33;23.17;;;13.43;;
19193;SDS011;9729;52.296;13.260;2023-04-23T04:54:00;17.77;;;13.00;;
19193;SDS011;9729;52.296;13.260;2023-04-23T04:56:27;18.53;;;12.17;;
19193;SDS011;9729;52.296;13.260;2023-04-23T04:58:53;20.17;;;13.50;;
19193;SDS011;9729;52.296;13.260;2023-04-23T05:01:20;17.80;;;12.27;;
19193;SDS011;9729;52.296;13.260;2023-04-23T05:03:47;15.57;;;12.20;;
19193;SDS011;9729;52.296;13.260;2023-04-23T05:06:14;17.67;;;12.50;;
19193;SDS011;9729;52.296;13.260;2023-04-23T05:08:41;14.20;;;11.77;;
19193;SDS011;9729;52.296;13.260;2023-04-23T05:11:11;23.10;;;13.10;;
19193;SDS011;9729;52.296;13.260;2023-04-23T05:13:38;18.30;;;12.73;;
19193;SDS011;9729;52.296;13.260;2023-04-23T05:16:04;20.67;;;12.20;;
19193;SDS011;9729;52.296;13.260;2023-04-23T05:18:31;16.37;;;12.43;;
19193;SDS011;9729;52.296;13.260;2023-04-23T05:20:57;18.47;;;12.83;;
19193;SDS011;9729;52.296;13.260;2023-04-23T05:23:25;17.83;;;13.03;;
19193;SDS011;9729;52.296;13.260;2023-04-23T05:25:51;17.50;;;12.20;;
19193;SDS011;9729;52.296;13.260;2023-04-23T05:28:19;19.13;;;13.27;;
19193;SDS011;9729;52.296;13.260;2023-04-23T05:30:46;20.43;;;12.43;;
19193;SDS011;9729;52.296;13.260;2023-04-23T05:33:13;18.33;;;12.40;;
19193;SDS011;9729;52.296;13.260;2023-04-23T05:35:40;20.03;;;11.50;;
19193;SDS011;9729;52.296;13.260;2023-04-23T05:38:06;15.93;;;11.73;;
19193;SDS011;9729;52.296;13.260;2023-04-23T05:40:34;20.37;;;12.07;;
19193;SDS011;9729;52.296;13.260;2023-04-23T05:43:00;16.70;;;11.43;;
19193;SDS011;9729;52.296;13.260;2023-04-23T05:45:27;16.47;;;11.47;;
19193;SDS011;9729;52.296;13.260;2023-04-23T05:47:53;15.10;;;11.83;;
19193;SDS011;9729;52.296;13.260;2023-04-23T05:50:20;18.60;;;12.23;;
19193;SDS011;9729;52.296;13.260;2023-04-23T05:52:46;15.43;;;11.30;;
19193;SDS011;9729;52.296;13.260;2023-04-23T05:55:13;17.03;;;12.30;;
19193;SDS011;9729;52.296;13.260;2023-04-23T05:57:41;15.60;;;11.87;;
19193;SDS011;9729;52.296;13.260;2023-04-23T06:00:07;18.77;;;11.63;;
19193;SDS011;9729;52.296;13.260;2023-04-23T06:02:35;14.30;;;10.40;;
19193;SDS011;9729;52.296;13.260;2023-04-23T06:05:02;16.27;;;10.60;;
19193;SDS011;9729;52.296;13.260;2023-04-23T06:07:28;13.70;;;10.37;;
19193;SDS011;9729;52.296;13.260;2023-04-23T06:09:55;16.47;;;11.87;;
19193;SDS011;9729;52.296;13.260;2023-04-23T06:12:21;16.13;;;11.57;;
19193;SDS011;9729;52.296;13.260;2023-04-23T06:14:49;84.93;;;48.67;;
19193;SDS011;9729;52.296;13.260;2023-04-23T06:17:17;106.73;;;60.00;;
19193;SDS011;9729;52.296;13.260;2023-04-23T06:19:43;53.40;;;31.63;;
19193;SDS011;9729;52.296;13.260;2023-04-23T06:22:10;46.57;;;30.83;;
19193;SDS011;9729;52.296;13.260;2023-04-23T06:24:36;26.17;;;18.67;;
19193;SDS011;9729;52.296;13.260;2023-04-23T06:27:03;17.53;;;12.13;;
19193;SDS011;9729;52.296;13.260;2023-04-23T06:29:29;17.67;;;10.37;;
19193;SDS011;9729;52.296;13.260;2023-04-23T06:31:59;15.63;;;11.03;;
19193;SDS011;9729;52.296;13.260;2023-04-23T06:34:26;17.50;;;10.40;;
19193;SDS011;9729;52.296;13.260;2023-04-23T06:36:53;14.83;;;10.37;;
19193;SDS011;9729;52.296;13.260;2023-04-23T06:39:20;14.27;;;10.10;;
19193;SDS011;9729;52.296;13.260;2023-04-23T06:41:46;17.93;;;10.43;;
19193;SDS011;9729;52.296;13.260;2023-04-23T06:44:13;13.30;;;9.77;;
19193;SDS011;9729;52.296;13.260;2023-04-23T06:46:39;16.20;;;9.30;;
19193;SDS011;9729;52.296;13.260;2023-04-23T06:49:07;15.50;;;10.03;;
19193;SDS011;9729;52.296;13.260;2023-04-23T06:51:33;11.93;;;9.37;;
19193;SDS011;9729;52.296;13.260;2023-04-23T06:54:00;15.13;;;9.87;;
19193;SDS011;9729;52.296;13.260;2023-04-23T06:56:26;14.73;;;9.40;;
19193;SDS011;9729;52.296;13.260;2023-04-23T06:58:52;13.67;;;10.00;;
19193;SDS011;9729;52.296;13.260;2023-04-23T07:01:19;10.60;;;9.40;;
19193;SDS011;9729;52.296;13.260;2023-04-23T07:03:45;13.23;;;10.17;;
19193;SDS011;9729;52.296;13.260;2023-04-23T07:06:14;17.10;;;9.77;;
19193;SDS011;9729;52.296;13.260;2023-04-23T07:08:41;14.93;;;10.20;;
19193;SDS011;9729;52.296;13.260;2023-04-23T07:11:08;16.43;;;10.40;;
19193;SDS011;9729;52.296;13.260;2023-04-23T07:13:35;14.80;;;9.47;;
19193;SDS011;9729;52.296;13.260;2023-04-23T07:16:01;14.13;;;9.73;;
19193;SDS011;9729;52.296;13.260;2023-04-23T07:18:28;13.27;;;9.97;;
19193;SDS011;9729;52.296;13.260;2023-04-23T07:20:54;11.70;;;8.80;;
19193;SDS011;9729;52.296;13.260;2023-04-23T07:23:23;14.17;;;9.50;;
19193;SDS011;9729;52.296;13.260;2023-04-23T07:25:51;12.27;;;9.17;;
19193;SDS011;9729;52.296;13.260;2023-04-23T07:28:17;15.03;;;9.93;;
19193;SDS011;9729;52.296;13.260;2023-04-23T07:30:43;13.13;;;8.90;;
19193;SDS011;9729;52.296;13.260;2023-04-23T07:33:10;15.00;;;9.90;;
19193;SDS011;9729;52.296;13.260;2023-04-23T07:35:37;15.70;;;9.27;;
19193;SDS011;9729;52.296;13.260;2023-04-23T07:38:03;17.10;;;9.40;;
19193;SDS011;9729;52.296;13.260;2023-04-23T07:40:31;14.40;;;8.63;;
19193;SDS011;9729;52.296;13.260;2023-04-23T07:42:57;17.37;;;9.27;;
19193;SDS011;9729;52.296;13.260;2023-04-23T07:45:24;10.67;;;8.37;;
19193;SDS011;9729;52.296;13.260;2023-04-23T07:47:50;14.23;;;9.47;;
19193;SDS011;9729;52.296;13.260;2023-04-23T07:50:16;14.37;;;8.97;;
19193;SDS011;9729;52.296;13.260;2023-04-23T07:52:43;12.77;;;9.53;;
19193;SDS011;9729;52.296;13.260;2023-04-23T07:55:09;12.13;;;8.70;;
19193;SDS011;9729;52.296;13.260;2023-04-23T07:57:36;13.87;;;9.90;;
19193;SDS011;9729;52.296;13.260;2023-04-23T08:00:03;11.50;;;8.67;;
19193;SDS011;9729;52.296;13.260;2023-04-23T08:02:33;12.00;;;8.67;;
19193;SDS011;9729;52.296;13.260;2023-04-23T08:04:59;13.60;;;8.70;;
19193;SDS011;9729;52.296;13.260;2023-04-23T08:07:26;16.50;;;9.40;;
19193;SDS011;9729;52.296;13.260;2023-04-23T08:09:53;12.67;;;9.33;;
19193;SDS011;9729;52.296;13.260;2023-04-23T08:12:20;13.07;;;8.60;;
19193;SDS011;9729;52.296;13.260;2023-04-23T08:14:48;14.57;;;8.23;;
19193;SDS011;9729;52.296;13.260;2023-04-23T08:17:14;18.17;;;8.73;;
19193;SDS011;9729;52.296;13.260;2023-04-23T08:19:41;8.77;;;7.83;;
19193;SDS011;9729;52.296;13.260;2023-04-23T08:22:07;10.37;;;8.70;;
19193;SDS011;9729;52.296;13.260;2023-04-23T08:24:34;12.03;;;8.77;;
19193;SDS011;9729;52.296;13.260;2023-04-23T08:27:00;11.67;;;8.80;;
19193;SDS011;9729;52.296;13.260;2023-04-23T08:29:27;11.33;;;8.20;;
19193;SDS011;9729;52.296;13.260;2023-04-23T08:31:55;13.47;;;7.73;;
19193;SDS011;9729;52.296;13.260;2023-04-23T08:34:21;12.93;;;8.40;;
19193;SDS011;9729;52.296;13.260;2023-04-23T08:36:47;10.43;;;7.57;;
19193;SDS011;9729;52.296;13.260;2023-04-23T08:39:14;10.07;;;7.23;;
19193;SDS011;9729;52.296;13.260;2023-04-23T08:41:41;8.43;;;7.07;;
19193;SDS011;9729;52.296;13.260;2023-04-23T08:44:11;9.90;;;6.83;;
19193;SDS011;9729;52.296;13.260;2023-04-23T08:46:39;10.10;;;6.60;;
19193;SDS011;9729;52.296;13.260;2023-04-23T08:49:09;9.03;;;6.90;;
19193;SDS011;9729;52.296;13.260;2023-04-23T08:51:39;11.17;;;7.27;;
19193;SDS011;9729;52.296;13.260;2023-04-23T08:54:08;9.40;;;6.70;;
19193;SDS011;9729;52.296;13.260;2023-04-23T08:56:36;11.83;;;6.70;;
19193;SDS011;9729;52.296;13.260;2023-04-23T08:59:04;8.00;;;6.17;;
19193;SDS011;9729;52.296;13.260;2023-04-23T09:01:31;10.23;;;5.80;;
19193;SDS011;9729;52.296;13.260;2023-04-23T09:03:59;9.43;;;6.27;;
19193;SDS011;9729;52.296;13.260;2023-04-23T09:06:27;8.70;;;6.77;;
19193;SDS011;9729;52.296;13.260;2023-04-23T09:08:53;8.13;;;6.33;;
19193;SDS011;9729;52.296;13.260;2023-04-23T09:11:20;11.63;;;6.80;;
19193;SDS011;9729;52.296;13.260;2023-04-23T09:13:48;10.10;;;7.33;;
19193;SDS011;9729;52.296;13.260;2023-04-23T09:16:15;11.67;;;7.87;;
19193;SDS011;9729;52.296;13.260;2023-04-23T09:18:41;10.73;;;7.80;;
19193;SDS011;9729;52.296;13.260;2023-04-23T09:21:08;11.03;;;7.57;;
19193;SDS011;9729;52.296;13.260;2023-04-23T09:23:38;10.80;;;7.60;;
19193;SDS011;9729;52.296;13.260;2023-04-23T09:26:05;8.73;;;6.33;;
19193;SDS011;9729;52.296;13.260;2023-04-23T09:28:35;7.70;;;6.03;;
19193;SDS011;9729;52.296;13.260;2023-04-23T09:31:03;7.13;;;6.07;;
19193;SDS011;9729;52.296;13.260;2023-04-23T09:33:33;7.97;;;6.33;;
19193;SDS011;9729;52.296;13.260;2023-04-23T09:36:03;8.10;;;5.97;;
19193;SDS011;9729;52.296;13.260;2023-04-23T09:38:31;6.40;;;5.30;;
19193;SDS011;9729;52.296;13.260;2023-04-23T09:41:00;11.00;;;6.00;;
19193;SDS011;9729;52.296;13.260;2023-04-23T09:43:46;8.43;;;6.10;;
19193;SDS011;9729;52.296;13.260;2023-04-23T09:46:12;8.43;;;5.83;;
19193;SDS011;9729;52.296;13.260;2023-04-23T09:48:39;10.03;;;5.30;;
19193;SDS011;9729;52.296;13.260;2023-04-23T09:51:06;9.43;;;4.80;;
19193;SDS011;9729;52.296;13.260;2023-04-23T09:53:39;9.37;;;5.13;;
19193;SDS011;9729;52.296;13.260;2023-04-23T09:56:08;5.13;;;4.63;;
19193;SDS011;9729;52.296;13.260;2023-04-23T09:58:34;6.73;;;4.80;;
19193;SDS011;9729;52.296;13.260;2023-04-23T10:01:04;7.13;;;4.87;;
19193;SDS011;9729;52.296;13.260;2023-04-23T10:03:31;6.40;;;4.97;;
19193;SDS011;9729;52.296;13.260;2023-04-23T10:05:58;6.33;;;4.63;;
19193;SDS011;9729;52.296;13.260;2023-04-23T10:08:25;6.13;;;5.03;;
19193;SDS011;9729;52.296;13.260;2023-04-23T10:10:52;8.50;;;5.67;;
19193;SDS011;9729;52.296;13.260;2023-04-23T10:13:20;7.33;;;6.27;;
19193;SDS011;9729;52.296;13.260;2023-04-23T10:15:46;6.97;;;5.60;;
19193;SDS011;9729;52.296;13.260;2023-04-23T10:18:13;8.63;;;6.20;;
19193;SDS011;9729;52.296;13.260;2023-04-23T10:20:40;8.93;;;6.77;;
19193;SDS011;9729;52.296;13.260;2023-04-23T10:23:07;8.80;;;6.97;;
19193;SDS011;9729;52.296;13.260;2023-04-23T10:25:34;9.27;;;7.37;;
19193;SDS011;9729;52.296;13.260;2023-04-23T10:28:02;10.13;;;8.10;;
19193;SDS011;9729;52.296;13.260;2023-04-23T10:30:30;12.33;;;8.57;;
19193;SDS011;9729;52.296;13.260;2023-04-23T10:32:56;12.33;;;9.07;;
19193;SDS011;9729;52.296;13.260;2023-04-23T10:35:24;12.27;;;9.20;;
19193;SDS011;9729;52.296;13.260;2023-04-23T10:37:51;13.13;;;9.17;;
19193;SDS011;9729;52.296;13.260;2023-04-23T10:40:18;13.40;;;9.80;;
19193;SDS011;9729;52.296;13.260;2023-04-23T10:42:46;15.97;;;11.37;;
19193;SDS011;9729;52.296;13.260;2023-04-23T10:45:13;16.40;;;11.13;;
19193;SDS011;9729;52.296;13.260;2023-04-23T10:47:42;14.10;;;11.10;;
19193;SDS011;9729;52.296;13.260;2023-04-23T10:50:19;14.20;;;10.97;;
19193;SDS011;9729;52.296;13.260;2023-04-23T10:52:47;15.73;;;11.03;;
19193;SDS011;9729;52.296;13.260;2023-04-23T10:55:18;16.00;;;12.27;;
19193;SDS011;9729;52.296;13.260;2023-04-23T10:57:59;19.57;;;11.97;;
19193;SDS011;9729;52.296;13.260;2023-04-23T11:00:27;16.47;;;11.03;;
19193;SDS011;9729;52.296;13.260;2023-04-23T11:02:55;15.03;;;12.27;;
19193;SDS011;9729;52.296;13.260;2023-04-23T11:05:21;18.17;;;11.03;;
19193;SDS011;9729;52.296;13.260;2023-04-23T11:08:01;17.43;;;12.30;;
19193;SDS011;9729;52.296;13.260;2023-04-23T11:10:29;16.93;;;12.50;;
19193;SDS011;9729;52.296;13.260;2023-04-23T11:12:56;16.30;;;12.13;;
19193;SDS011;9729;52.296;13.260;2023-04-23T11:15:22;15.67;;;12.37;;
19193;SDS011;9729;52.296;13.260;2023-04-23T11:17:59;8.37;;;6.47;;
19193;SDS011;9729;52.296;13.260;2023-04-23T11:20:27;7.03;;;5.47;;
19193;SDS011;9729;52.296;13.260;2023-04-23T11:22:53;8.40;;;5.27;;
19193;SDS011;9729;52.296;13.260;2023-04-23T11:25:20;7.13;;;5.30;;
19193;SDS011;9729;52.296;13.260;2023-04-23T11:27:47;6.57;;;5.30;;
19193;SDS011;9729;52.296;13.260;2023-04-23T11:30:15;7.20;;;5.40;;
19193;SDS011;9729;52.296;13.260;2023-04-23T11:32:43;7.90;;;5.77;;
19193;SDS011;9729;52.296;13.260;2023-04-23T11:35:12;9.10;;;5.50;;
19193;SDS011;9729;52.296;13.260;2023-04-23T11:37:39;8.77;;;5.87;;
19193;SDS011;9729;52.296;13.260;2023-04-23T11:40:07;7.63;;;5.30;;
19193;SDS011;9729;52.296;13.260;2023-04-23T11:42:39;6.10;;;4.20;;
19193;SDS011;9729;52.296;13.260;2023-04-23T11:45:13;6.40;;;4.73;;
19193;SDS011;9729;52.296;13.260;2023-04-23T11:47:43;5.67;;;4.13;;
19193;SDS011;9729;52.296;13.260;2023-04-23T11:50:09;5.13;;;4.17;;
19193;SDS011;9729;52.296;13.260;2023-04-23T11:52:38;5.67;;;4.70;;
19193;SDS011;9729;52.296;13.260;2023-04-23T11:55:04;6.97;;;3.93;;
19193;SDS011;9729;52.296;13.260;2023-04-23T11:57:33;8.43;;;3.90;;
19193;SDS011;9729;52.296;13.260;2023-04-23T12:00:00;5.13;;;3.37;;
19193;SDS011;9729;52.296;13.260;2023-04-23T12:02:28;6.77;;;3.27;;
19193;SDS011;9729;52.296;13.260;2023-04-23T12:04:54;6.13;;;3.00;;
19193;SDS011;9729;52.296;13.260;2023-04-23T12:07:30;4.87;;;3.23;;
19193;SDS011;9729;52.296;13.260;2023-04-23T12:09:58;5.60;;;3.00;;
19193;SDS011;9729;52.296;13.260;2023-04-23T12:12:31;2.67;;;2.30;;
19193;SDS011;9729;52.296;13.260;2023-04-23T12:15:02;4.93;;;2.40;;
19193;SDS011;9729;52.296;13.260;2023-04-23T12:17:28;5.33;;;2.70;;
19193;SDS011;9729;52.296;13.260;2023-04-23T12:19:55;2.13;;;1.67;;
19193;SDS011;9729;52.296;13.260;2023-04-23T12:22:25;2.43;;;2.13;;
19193;SDS011;9729;52.296;13.260;2023-04-23T12:24:51;4.93;;;2.20;;
19193;SDS011;9729;52.296;13.260;2023-04-23T12:27:21;4.43;;;2.50;;
19193;SDS011;9729;52.296;13.260;2023-04-23T12:29:47;4.47;;;2.60;;
19193;SDS011;9729;52.296;13.260;2023-04-23T12:32:14;3.40;;;2.20;;
19193;SDS011;9729;52.296;13.260;2023-04-23T12:34:50;3.43;;;2.00;;
19193;SDS011;9729;52.296;13.260;2023-04-23T12:37:17;3.20;;;2.73;;
19193;SDS011;9729;52.296;13.260;2023-04-23T12:39:46;5.33;;;2.60;;
19193;SDS011;9729;52.296;13.260;2023-04-23T12:42:12;4.37;;;2.80;;
19193;SDS011;9729;52.296;13.260;2023-04-23T12:44:40;3.43;;;2.40;;
19193;SDS011;9729;52.296;13.260;2023-04-23T12:47:07;4.60;;;2.63;;
19193;SDS011;9729;52.296;13.260;2023-04-23T12:49:35;5.60;;;3.10;;
19193;SDS011;9729;52.296;13.260;2023-04-23T12:52:03;5.07;;;2.90;;
19193;SDS011;9729;52.296;13.260;2023-04-23T12:54:31;4.40;;;3.30;;
19193;SDS011;9729;52.296;13.260;2023-04-23T12:56:58;5.30;;;3.40;;
19193;SDS011;9729;52.296;13.260;2023-04-23T12:59:25;5.43;;;3.73;;
19193;SDS011;9729;52.296;13.260;2023-04-23T13:01:53;4.67;;;3.97;;
19193;SDS011;9729;52.296;13.260;2023-04-23T13:04:19;5.63;;;3.83;;
19193;SDS011;9729;52.296;13.260;2023-04-23T13:06:46;5.10;;;3.43;;
19193;SDS011;9729;52.296;13.260;2023-04-23T13:09:13;5.43;;;3.77;;
19193;SDS011;9729;52.296;13.260;2023-04-23T13:11:39;3.93;;;3.53;;
19193;SDS011;9729;52.296;13.260;2023-04-23T13:14:06;7.40;;;3.70;;
19193;SDS011;9729;52.296;13.260;2023-04-23T13:16:33;4.67;;;3.40;;
19193;SDS011;9729;52.296;13.260;2023-04-23T13:19:01;4.40;;;3.50;;
19193;SDS011;9729;52.296;13.260;2023-04-23T13:21:28;4.97;;;3.27;;
19193;SDS011;9729;52.296;13.260;2023-04-23T13:23:55;4.17;;;3.43;;
19193;SDS011;9729;52.296;13.260;2023-04-23T13:26:21;4.90;;;3.27;;
19193;SDS011;9729;52.296;13.260;2023-04-23T13:28:47;4.97;;;3.77;;
19193;SDS011;9729;52.296;13.260;2023-04-23T13:31:14;5.33;;;4.07;;
19193;SDS011;9729;52.296;13.260;2023-04-23T13:33:40;5.93;;;3.70;;
19193;SDS011;9729;52.296;13.260;2023-04-23T13:36:08;4.30;;;3.30;;
19193;SDS011;9729;52.296;13.260;2023-04-23T13:38:35;3.47;;;3.13;;
19193;SDS011;9729;52.296;13.260;2023-04-23T13:41:01;4.70;;;3.13;;
19193;SDS011;9729;52.296;13.260;2023-04-23T13:43:28;3.80;;;2.93;;
19193;SDS011;9729;52.296;13.260;2023-04-23T13:45:54;6.43;;;3.30;;
19193;SDS011;9729;52.296;13.260;2023-04-23T13:48:21;3.30;;;2.83;;
19193;SDS011;9729;52.296;13.260;2023-04-23T13:50:52;4.37;;;3.33;;
19193;SDS011;9729;52.296;13.260;2023-04-23T13:53:20;4.07;;;2.80;;
19193;SDS011;9729;52.296;13.260;2023-04-23T13:55:46;3.83;;;2.43;;
19193;SDS011;9729;52.296;13.260;2023-04-23T13:58:12;3.33;;;2.90;;
19193;SDS011;9729;52.296;13.260;2023-04-23T14:00:40;6.47;;;2.80;;
19193;SDS011;9729;52.296;13.260;2023-04-23T14:03:07;4.57;;;3.43;;
19193;SDS011;9729;52.296;13.260;2023-04-23T14:05:33;4.03;;;2.90;;
19193;SDS011;9729;52.296;13.260;2023-04-23T14:08:00;3.47;;;2.83;;
19193;SDS011;9729;52.296;13.260;2023-04-23T14:10:28;3.07;;;2.43;;
19193;SDS011;9729;52.296;13.260;2023-04-23T14:12:54;3.23;;;2.50;;
19193;SDS011;9729;52.296;13.260;2023-04-23T14:15:21;4.07;;;2.70;;
19193;SDS011;9729;52.296;13.260;2023-04-23T14:17:47;2.90;;;2.40;;
19193;SDS011;9729;52.296;13.260;2023-04-23T14:20:14;4.10;;;3.00;;
19193;SDS011;9729;52.296;13.260;2023-04-23T14:22:41;3.10;;;2.60;;
19193;SDS011;9729;52.296;13.260;2023-04-23T14:25:08;2.73;;;2.50;;
19193;SDS011;9729;52.296;13.260;2023-04-23T14:27:39;10.13;;;2.97;;
19193;SDS011;9729;52.296;13.260;2023-04-23T14:30:13;3.57;;;2.33;;
19193;SDS011;9729;52.296;13.260;2023-04-23T14:32:40;3.03;;;2.70;;